createdAt,value
2022-10-17T00:00:42.269Z,966.57
2022-10-17T00:01:42.268Z,966.6
2022-10-17T00:02:43.600Z,966.61
2022-10-17T00:03:42.360Z,966.66
2022-10-17T00:04:42.231Z,966.68
2022-10-17T00:05:42.248Z,966.63
2022-10-17T00:06:42.248Z,966.69
2022-10-17T00:08:42.515Z,966.7
2022-10-17T00:09:42.286Z,966.69
2022-10-17T00:11:42.289Z,966.73
2022-10-17T00:12:42.369Z,966.74
2022-10-17T00:13:42.261Z,966.72
2022-10-17T00:14:42.305Z,966.77
2022-10-17T00:16:42.406Z,966.75
2022-10-17T00:17:43.706Z,966.72
2022-10-17T00:18:42.376Z,966.71
2022-10-17T00:19:42.271Z,966.75
2022-10-17T00:20:42.305Z,966.74
2022-10-17T00:21:42.275Z,966.73
2022-10-17T00:23:42.281Z,966.71
2022-10-17T00:24:42.386Z,966.7
2022-10-17T00:25:42.371Z,966.73
2022-10-17T00:26:42.324Z,966.71
2022-10-17T00:27:42.390Z,966.75
2022-10-17T00:28:42.317Z,966.73
2022-10-17T00:29:42.432Z,966.75
2022-10-17T00:30:42.405Z,966.78
2022-10-17T00:32:42.426Z,966.79
2022-10-17T00:33:42.397Z,966.81
2022-10-17T00:34:42.370Z,966.77
2022-10-17T00:35:42.316Z,966.8
2022-10-17T00:36:42.405Z,966.79
2022-10-17T00:37:42.469Z,966.76
2022-10-17T00:38:42.439Z,966.79
2022-10-17T00:40:42.448Z,966.74
2022-10-17T00:41:42.574Z,966.76
2022-10-17T00:43:42.375Z,966.77
2022-10-17T00:44:42.441Z,966.75
2022-10-17T00:45:42.408Z,966.77
2022-10-17T00:46:42.497Z,966.75
2022-10-17T00:47:42.451Z,966.76
2022-10-17T00:48:42.415Z,966.77
2022-10-17T00:49:42.494Z,966.78
2022-10-17T00:50:42.453Z,966.76
2022-10-17T00:51:42.344Z,966.77
2022-10-17T00:52:43.399Z,966.75
2022-10-17T00:53:42.478Z,966.77
2022-10-17T00:54:42.424Z,966.76
2022-10-17T00:55:42.532Z,966.74
2022-10-17T00:56:42.463Z,966.78
2022-10-17T00:57:42.441Z,966.76
2022-10-17T00:58:42.498Z,966.75
2022-10-17T00:59:42.467Z,966.74
2022-10-17T01:00:42.351Z,966.76
2022-10-17T01:01:42.535Z,966.74
2022-10-17T01:02:42.474Z,966.77
2022-10-17T01:03:42.367Z,966.78
2022-10-17T01:04:42.372Z,966.75
2022-10-17T01:05:42.471Z,966.76
2022-10-17T01:06:42.372Z,966.79
2022-10-17T01:10:42.469Z,966.78
2022-10-17T01:12:42.465Z,966.76
2022-10-17T01:13:42.397Z,966.74
2022-10-17T01:14:42.495Z,966.75
2022-10-17T01:15:42.458Z,966.73
2022-10-17T01:16:42.401Z,966.74
2022-10-17T01:17:42.495Z,966.71
2022-10-17T01:18:42.562Z,966.7
2022-10-17T01:20:42.492Z,966.69
2022-10-17T01:22:42.431Z,966.68
2022-10-17T01:23:42.417Z,966.74
2022-10-17T01:24:42.566Z,966.68
2022-10-17T01:25:42.455Z,966.7
2022-10-17T01:26:42.427Z,966.69
2022-10-17T01:27:42.420Z,966.7
2022-10-17T01:29:42.433Z,966.66
2022-10-17T01:31:42.655Z,966.69
2022-10-17T01:32:42.530Z,966.67
2022-10-17T01:33:42.592Z,966.69
2022-10-17T01:34:42.550Z,966.66
2022-10-17T01:35:42.445Z,966.67
2022-10-17T01:36:42.438Z,966.66
2022-10-17T01:37:42.513Z,966.61
2022-10-17T01:38:42.523Z,966.6
2022-10-17T01:39:44.002Z,966.61
2022-10-17T01:40:42.457Z,966.59
2022-10-17T01:41:42.523Z,966.58
2022-10-17T01:42:42.598Z,966.57
2022-10-17T01:43:42.466Z,966.51
2022-10-17T01:44:42.468Z,966.53
2022-10-17T01:45:42.600Z,966.52
2022-10-17T01:47:42.474Z,966.51
2022-10-17T01:49:42.489Z,966.54
2022-10-17T01:50:42.491Z,966.56
2022-10-17T01:51:42.505Z,966.57
2022-10-17T01:52:42.482Z,966.6
2022-10-17T01:53:42.646Z,966.58
2022-10-17T01:54:42.612Z,966.57
2022-10-17T01:55:42.581Z,966.55
2022-10-17T01:56:42.552Z,966.56
2022-10-17T01:57:42.614Z,966.46
2022-10-17T01:58:42.499Z,966.53
2022-10-17T02:00:42.780Z,966.59
2022-10-17T02:01:42.659Z,966.58
2022-10-17T02:02:42.559Z,966.55
2022-10-17T02:03:42.504Z,966.49
2022-10-17T02:04:42.597Z,966.54
2022-10-17T02:05:42.517Z,966.6
2022-10-17T02:06:42.623Z,966.5
2022-10-17T02:07:42.598Z,966.6
2022-10-17T02:08:42.551Z,966.59
2022-10-17T02:09:42.633Z,966.65
2022-10-17T02:10:42.598Z,966.62
2022-10-17T02:11:42.675Z,966.66
2022-10-17T02:13:42.809Z,966.64
2022-10-17T02:14:42.502Z,966.67
2022-10-17T02:15:42.648Z,966.68
2022-10-17T02:16:42.616Z,966.69
2022-10-17T02:17:42.550Z,966.72
2022-10-17T02:18:42.541Z,966.73
2022-10-17T02:20:42.588Z,966.69
2022-10-17T02:21:42.550Z,966.67
2022-10-17T02:22:42.550Z,966.66
2022-10-17T02:24:42.649Z,966.63
2022-10-17T02:25:42.561Z,966.65
2022-10-17T02:27:42.773Z,966.63
2022-10-17T02:28:42.772Z,966.6
2022-10-17T02:29:42.697Z,966.59
2022-10-17T02:30:42.659Z,966.58
2022-10-17T02:31:42.729Z,966.56
2022-10-17T02:32:44.344Z,966.58
2022-10-17T02:33:42.584Z,966.57
2022-10-17T02:35:42.597Z,966.56
2022-10-17T02:36:42.601Z,966.53
2022-10-17T02:37:42.748Z,966.54
2022-10-17T02:38:42.584Z,966.57
2022-10-17T02:39:42.595Z,966.56
2022-10-17T02:40:42.600Z,966.53
2022-10-17T02:41:42.713Z,966.54
2022-10-17T02:42:42.605Z,966.53
2022-10-17T02:43:42.608Z,966.54
2022-10-17T02:44:42.613Z,966.55
2022-10-17T02:45:42.619Z,966.57
2022-10-17T02:46:42.613Z,966.55
2022-10-17T02:47:42.614Z,966.56
2022-10-17T02:48:42.624Z,966.63
2022-10-17T02:50:42.716Z,966.64
2022-10-17T02:52:42.806Z,966.61
2022-10-17T02:53:42.643Z,966.65
2022-10-17T02:54:42.631Z,966.63
2022-10-17T02:55:42.765Z,966.61
2022-10-17T02:56:42.648Z,966.6
2022-10-17T02:57:42.663Z,966.59
2022-10-17T02:58:42.648Z,966.6
2022-10-17T02:59:42.671Z,966.58
2022-10-17T03:00:42.807Z,966.59
2022-10-17T03:01:42.779Z,966.6
2022-10-17T03:03:42.655Z,966.59
2022-10-17T03:04:42.654Z,966.62
2022-10-17T03:05:42.661Z,966.63
2022-10-17T03:06:42.809Z,966.68
2022-10-17T03:07:42.775Z,966.69
2022-10-17T03:08:42.755Z,966.68
2022-10-17T03:09:42.705Z,966.7
2022-10-17T03:10:42.787Z,966.71
2022-10-17T03:12:42.853Z,966.72
2022-10-17T03:13:42.800Z,966.77
2022-10-17T03:14:42.749Z,966.74
2022-10-17T03:15:42.673Z,966.75
2022-10-17T03:17:42.741Z,966.77
2022-10-17T03:18:44.314Z,966.76
2022-10-17T03:19:42.935Z,966.82
2022-10-17T03:21:42.812Z,966.87
2022-10-17T03:25:42.725Z,966.84
2022-10-17T03:26:42.821Z,966.87
2022-10-17T03:27:42.850Z,966.88
2022-10-17T03:29:42.718Z,966.87
2022-10-17T03:30:42.735Z,966.88
2022-10-17T03:32:42.741Z,966.85
2022-10-17T03:33:42.751Z,966.86
2022-10-17T03:34:42.726Z,966.9
2022-10-17T03:35:42.968Z,966.89
2022-10-17T03:36:42.736Z,966.9
2022-10-17T03:37:42.728Z,966.88
2022-10-17T03:38:42.733Z,966.93
2022-10-17T03:39:42.752Z,966.9
2022-10-17T03:40:42.743Z,966.92
2022-10-17T03:41:42.745Z,966.96
2022-10-17T03:43:42.787Z,967.01
2022-10-17T03:44:42.768Z,967.02
2022-10-17T03:45:42.862Z,967.04
2022-10-17T03:46:42.759Z,967.07
2022-10-17T03:47:42.766Z,967.08
2022-10-17T03:48:42.868Z,967.09
2022-10-17T03:50:42.764Z,967.11
2022-10-17T03:51:42.768Z,967.14
2022-10-17T03:52:42.843Z,967.13
2022-10-17T03:53:42.770Z,967.14
2022-10-17T03:54:42.775Z,967.16
2022-10-17T03:55:42.773Z,967.2
2022-10-17T03:57:43.488Z,967.24
2022-10-17T03:58:42.782Z,967.22
2022-10-17T04:00:42.796Z,967.24
2022-10-17T04:01:42.893Z,967.26
2022-10-17T04:03:42.790Z,967.3
2022-10-17T04:04:42.968Z,967.29
2022-10-17T04:05:44.090Z,967.26
2022-10-17T04:06:42.802Z,967.29
2022-10-17T04:07:42.891Z,967.25
2022-10-17T04:09:42.950Z,967.26
2022-10-17T04:10:42.818Z,967.27
2022-10-17T04:11:42.932Z,967.26
2022-10-17T04:12:42.837Z,967.25
2022-10-17T04:13:42.981Z,967.3
2022-10-17T04:14:42.829Z,967.29
2022-10-17T04:15:42.823Z,967.31
2022-10-17T04:16:42.826Z,967.3
2022-10-17T04:17:42.830Z,967.33
2022-10-17T04:18:42.828Z,967.34
2022-10-17T04:19:42.834Z,967.35
2022-10-17T04:20:42.833Z,967.34
2022-10-17T04:22:42.876Z,967.36
2022-10-17T04:23:42.848Z,967.37
2022-10-17T04:24:42.841Z,967.36
2022-10-17T04:25:42.846Z,967.38
2022-10-17T04:26:42.850Z,967.37
2022-10-17T04:27:42.854Z,967.41
2022-10-17T04:28:42.862Z,967.4
2022-10-17T04:29:42.861Z,967.43
2022-10-17T04:30:45.045Z,967.45
2022-10-17T04:31:42.865Z,967.44
2022-10-17T04:33:42.989Z,967.45
2022-10-17T04:34:43.012Z,967.47
2022-10-17T04:36:43.029Z,967.52
2022-10-17T04:37:42.896Z,967.53
2022-10-17T04:38:42.965Z,967.52
2022-10-17T04:39:43.035Z,967.51
2022-10-17T04:40:42.878Z,967.55
2022-10-17T04:41:42.887Z,967.53
2022-10-17T04:42:42.883Z,967.55
2022-10-17T04:43:44.445Z,967.52
2022-10-17T04:45:42.885Z,967.56
2022-10-17T04:47:42.905Z,967.59
2022-10-17T04:48:43.083Z,967.63
2022-10-17T04:49:42.921Z,967.6
2022-10-17T04:50:42.892Z,967.58
2022-10-17T04:53:42.921Z,967.62
2022-10-17T04:54:42.920Z,967.6
2022-10-17T04:56:42.965Z,967.61
2022-10-17T04:57:42.972Z,967.6
2022-10-17T04:58:42.918Z,967.63
2022-10-17T04:59:42.933Z,967.64
2022-10-17T05:00:42.979Z,967.65
2022-10-17T05:01:42.930Z,967.63
2022-10-17T05:04:43.063Z,967.64
2022-10-17T05:05:42.958Z,967.65
2022-10-17T05:06:42.946Z,967.66
2022-10-17T05:07:42.942Z,967.67
2022-10-17T05:08:43.064Z,967.7
2022-10-17T05:09:42.947Z,967.71
2022-10-17T05:10:43.040Z,967.7
2022-10-17T05:11:42.951Z,967.73
2022-10-17T05:12:43.112Z,967.76
2022-10-17T05:13:42.951Z,967.75
2022-10-17T05:14:42.970Z,967.77
2022-10-17T05:15:42.961Z,967.72
2022-10-17T05:16:43.052Z,967.77
2022-10-17T05:17:42.978Z,967.76
2022-10-17T05:18:42.969Z,967.75
2022-10-17T05:19:42.971Z,967.78
2022-10-17T05:20:42.967Z,967.76
2022-10-17T05:21:42.984Z,967.72
2022-10-17T05:22:43.058Z,967.74
2022-10-17T05:23:42.982Z,967.72
2022-10-17T05:24:43.093Z,967.76
2022-10-17T05:25:43.150Z,967.72
2022-10-17T05:26:43.124Z,967.77
2022-10-17T05:27:43.196Z,967.75
2022-10-17T05:29:43.038Z,967.74
2022-10-17T05:30:42.999Z,967.77
2022-10-17T05:32:43.205Z,967.75
2022-10-17T05:33:43.021Z,967.73
2022-10-17T05:34:43.004Z,967.75
2022-10-17T05:36:43.183Z,967.72
2022-10-17T05:37:43.020Z,967.69
2022-10-17T05:38:43.142Z,967.74
2022-10-17T05:40:43.078Z,967.75
2022-10-17T05:41:43.041Z,967.76
2022-10-17T05:42:43.023Z,967.74
2022-10-17T05:43:43.027Z,967.76
2022-10-17T05:44:43.044Z,967.73
2022-10-17T05:45:43.133Z,967.77
2022-10-17T05:46:43.027Z,967.76
2022-10-17T05:47:43.045Z,967.74
2022-10-17T05:48:43.038Z,967.78
2022-10-17T05:49:46.219Z,967.77
2022-10-17T05:50:43.039Z,967.79
2022-10-17T05:51:43.127Z,967.78
2022-10-17T05:53:43.061Z,967.85
2022-10-17T05:54:43.049Z,967.81
2022-10-17T05:55:43.049Z,967.84
2022-10-17T05:56:43.163Z,967.9
2022-10-17T05:57:43.064Z,967.92
2022-10-17T05:58:51.156Z,967.95
2022-10-17T05:59:43.225Z,967.94
2022-10-17T06:00:43.145Z,967.96
2022-10-17T06:01:43.068Z,967.99
2022-10-17T06:02:43.062Z,968.01
2022-10-17T06:03:43.081Z,968
2022-10-17T06:04:43.205Z,968.03
2022-10-17T06:05:43.182Z,968.05
2022-10-17T06:06:43.115Z,968.07
2022-10-17T06:08:43.089Z,968.11
2022-10-17T06:09:43.141Z,968.12
2022-10-17T06:10:43.084Z,968.16
2022-10-17T06:11:43.092Z,968.1
2022-10-17T06:12:43.152Z,968.11
2022-10-17T06:13:43.104Z,968.13
2022-10-17T06:14:43.094Z,968.1
2022-10-17T06:15:43.092Z,968.14
2022-10-17T06:16:43.095Z,968.15
2022-10-17T06:17:43.108Z,968.19
2022-10-17T06:18:43.131Z,968.21
2022-10-17T06:19:43.099Z,968.24
2022-10-17T06:20:43.914Z,968.22
2022-10-17T06:21:43.199Z,968.26
2022-10-17T06:22:43.113Z,968.3
2022-10-17T06:23:43.201Z,968.27
2022-10-17T06:24:43.116Z,968.3
2022-10-17T06:25:43.134Z,968.35
2022-10-17T06:26:43.203Z,968.36
2022-10-17T06:27:43.263Z,968.38
2022-10-17T06:28:43.131Z,968.46
2022-10-17T06:29:43.134Z,968.45
2022-10-17T06:31:43.220Z,968.48
2022-10-17T06:32:43.152Z,968.54
2022-10-17T06:33:43.301Z,968.52
2022-10-17T06:34:43.136Z,968.51
2022-10-17T06:35:43.221Z,968.53
2022-10-17T06:36:43.398Z,968.58
2022-10-17T06:37:43.156Z,968.57
2022-10-17T06:38:43.151Z,968.56
2022-10-17T06:39:43.150Z,968.57
2022-10-17T06:40:43.161Z,968.61
2022-10-17T06:42:43.293Z,968.64
2022-10-17T06:43:43.270Z,968.65
2022-10-17T06:44:43.235Z,968.68
2022-10-17T06:45:43.167Z,968.69
2022-10-17T06:46:43.177Z,968.71
2022-10-17T06:47:43.172Z,968.73
2022-10-17T06:48:43.177Z,968.74
2022-10-17T06:49:43.181Z,968.77
2022-10-17T06:50:43.180Z,968.76
2022-10-17T06:51:43.249Z,968.82
2022-10-17T06:52:43.279Z,968.8
2022-10-17T06:54:43.297Z,968.84
2022-10-17T06:55:43.200Z,968.87
2022-10-17T06:56:43.255Z,968.89
2022-10-17T06:57:43.328Z,968.91
2022-10-17T06:58:43.197Z,968.94
2022-10-17T07:00:43.579Z,968.96
2022-10-17T07:01:44.608Z,968.95
2022-10-17T07:02:43.206Z,968.94
2022-10-17T07:03:43.225Z,968.96
2022-10-17T07:04:43.308Z,969
2022-10-17T07:05:43.212Z,969.03
2022-10-17T07:06:43.224Z,969.02
2022-10-17T07:07:44.240Z,969.04
2022-10-17T07:08:43.455Z,969.02
2022-10-17T07:09:43.339Z,969.07
2022-10-17T07:10:43.220Z,969.08
2022-10-17T07:11:43.372Z,969.1
2022-10-17T07:13:43.241Z,969.08
2022-10-17T07:14:43.234Z,969.03
2022-10-17T07:15:43.340Z,969.08
2022-10-17T07:17:43.247Z,969.12
2022-10-17T07:18:43.247Z,969.15
2022-10-17T07:19:43.322Z,969.19
2022-10-17T07:20:43.245Z,969.24
2022-10-17T07:21:43.349Z,969.23
2022-10-17T07:22:43.249Z,969.28
2022-10-17T07:23:43.259Z,969.49
2022-10-17T07:24:43.385Z,969.84
2022-10-17T07:25:43.260Z,969.99
2022-10-17T07:26:43.389Z,970.17
2022-10-17T07:27:43.266Z,970.26
2022-10-17T07:28:43.339Z,970.3
2022-10-17T07:29:43.309Z,970.34
2022-10-17T07:31:43.473Z,970.33
2022-10-17T07:32:43.309Z,970.31
2022-10-17T07:33:43.314Z,970.26
2022-10-17T07:34:43.437Z,970.22
2022-10-17T07:35:43.299Z,970.16
2022-10-17T07:36:43.375Z,970.11
2022-10-17T07:37:43.444Z,970.06
2022-10-17T07:38:43.429Z,970.01
2022-10-17T07:39:43.312Z,969.97
2022-10-17T07:40:43.390Z,969.92
2022-10-17T07:41:43.413Z,969.9
2022-10-17T07:42:43.384Z,969.92
2022-10-17T07:43:43.349Z,969.85
2022-10-17T07:44:43.414Z,969.86
2022-10-17T07:45:43.411Z,969.87
2022-10-17T07:46:43.360Z,969.84
2022-10-17T07:47:43.420Z,969.85
2022-10-17T07:48:43.395Z,969.88
2022-10-17T07:49:43.455Z,969.87
2022-10-17T07:50:43.429Z,969.89
2022-10-17T07:52:43.388Z,969.88
2022-10-17T07:55:43.513Z,969.87
2022-10-17T07:57:43.367Z,969.88
2022-10-17T07:59:43.492Z,969.87
2022-10-17T08:00:43.500Z,969.82
2022-10-17T08:01:43.524Z,969.85
2022-10-17T08:02:43.450Z,969.78
2022-10-17T08:03:43.422Z,969.76
2022-10-17T08:04:43.481Z,969.79
2022-10-17T08:07:43.453Z,969.8
2022-10-17T08:08:43.492Z,969.84
2022-10-17T08:09:43.415Z,969.75
2022-10-17T08:10:43.505Z,969.72
2022-10-17T08:11:43.379Z,969.74
2022-10-17T08:12:43.526Z,969.72
2022-10-17T08:13:43.490Z,969.77
2022-10-17T08:15:43.427Z,969.76
2022-10-17T08:16:43.393Z,969.79
2022-10-17T08:17:43.462Z,969.77
2022-10-17T08:18:43.528Z,969.8
2022-10-17T08:19:43.400Z,969.73
2022-10-17T08:21:43.479Z,969.77
2022-10-17T08:22:43.510Z,969.75
2022-10-17T08:23:43.399Z,969.76
2022-10-17T08:24:43.443Z,969.75
2022-10-17T08:26:44.631Z,969.78
2022-10-17T08:27:43.415Z,969.73
2022-10-17T08:28:43.445Z,969.7
2022-10-17T08:29:43.478Z,969.71
2022-10-17T08:30:43.544Z,969.73
2022-10-17T08:32:43.478Z,969.75
2022-10-17T08:33:43.444Z,969.67
2022-10-17T08:34:43.523Z,969.69
2022-10-17T08:35:43.604Z,969.68
2022-10-17T08:36:43.520Z,969.66
2022-10-17T08:37:43.458Z,969.73
2022-10-17T08:38:43.775Z,969.7
2022-10-17T08:39:43.443Z,969.68
2022-10-17T08:40:43.448Z,969.64
2022-10-17T08:41:43.449Z,969.65
2022-10-17T08:42:43.558Z,969.63
2022-10-17T08:43:43.551Z,969.59
2022-10-17T08:44:43.604Z,969.58
2022-10-17T08:45:43.569Z,969.57
2022-10-17T08:46:43.465Z,969.61
2022-10-17T08:47:43.473Z,969.62
2022-10-17T08:48:45.423Z,969.61
2022-10-17T08:52:43.523Z,969.63
2022-10-17T08:53:43.488Z,969.66
2022-10-17T08:55:45.285Z,969.69
2022-10-17T08:56:48.691Z,969.62
2022-10-17T08:57:43.638Z,969.57
2022-10-17T08:58:43.483Z,969.59
2022-10-17T08:59:43.508Z,969.61
2022-10-17T09:00:43.498Z,969.62
2022-10-17T09:01:43.503Z,969.65
2022-10-17T09:02:43.594Z,969.61
2022-10-17T09:03:43.593Z,969.62
2022-10-17T09:05:43.639Z,969.61
2022-10-17T09:06:43.606Z,969.6
2022-10-17T09:07:43.574Z,969.58
2022-10-17T09:08:43.524Z,969.6
2022-10-17T09:10:43.570Z,969.58
2022-10-17T09:11:43.646Z,969.6
2022-10-17T09:12:43.520Z,969.64
2022-10-17T09:13:43.529Z,969.63
2022-10-17T09:14:43.641Z,969.66
2022-10-17T09:16:43.690Z,969.68
2022-10-17T09:17:43.548Z,969.64
2022-10-17T09:18:43.622Z,969.62
2022-10-17T09:19:43.697Z,969.52
2022-10-17T09:20:43.656Z,969.53
2022-10-17T09:21:43.550Z,969.51
2022-10-17T09:22:43.575Z,969.59
2022-10-17T09:23:43.565Z,969.56
2022-10-17T09:24:43.580Z,969.63
2022-10-17T09:25:43.560Z,969.64
2022-10-17T09:26:43.553Z,969.66
2022-10-17T09:27:43.560Z,969.63
2022-10-17T09:28:43.742Z,969.66
2022-10-17T09:29:43.989Z,969.62
2022-10-17T09:30:45.740Z,969.65
2022-10-17T09:31:43.994Z,969.63
2022-10-17T09:32:43.663Z,969.64
2022-10-17T09:33:54.095Z,969.63
2022-10-17T09:34:43.581Z,969.67
2022-10-17T09:36:43.585Z,969.7
2022-10-17T09:38:43.718Z,969.68
2022-10-17T09:39:43.766Z,969.7
2022-10-17T09:40:43.612Z,969.67
2022-10-17T09:41:45.755Z,969.66
2022-10-17T09:42:43.602Z,969.65
2022-10-17T09:43:43.607Z,969.66
2022-10-17T09:44:43.696Z,969.67
2022-10-17T09:45:43.613Z,969.66
2022-10-17T09:46:43.609Z,969.63
2022-10-17T09:47:43.702Z,969.65
2022-10-17T09:48:43.953Z,969.62
2022-10-17T09:49:43.624Z,969.65
2022-10-17T09:50:43.697Z,969.62
2022-10-17T09:51:43.635Z,969.63
2022-10-17T09:52:43.623Z,969.64
2022-10-17T09:53:43.636Z,969.65
2022-10-17T09:54:43.666Z,969.64
2022-10-17T09:56:43.702Z,969.69
2022-10-17T09:57:43.771Z,969.7
2022-10-17T09:58:43.649Z,969.74
2022-10-17T09:59:43.819Z,969.72
2022-10-17T10:00:43.835Z,969.69
2022-10-17T10:01:43.745Z,969.71
2022-10-17T10:02:43.665Z,969.75
2022-10-17T10:05:03.172Z,969.76
2022-10-17T10:05:44.789Z,969.82
2022-10-17T10:06:43.657Z,969.84
2022-10-17T10:08:43.917Z,969.83
2022-10-17T10:09:43.682Z,969.8
2022-10-17T10:11:43.823Z,969.85
2022-10-17T10:12:43.686Z,969.81
2022-10-17T10:13:43.774Z,969.82
2022-10-17T10:16:43.836Z,969.86
2022-10-17T10:17:43.794Z,969.82
2022-10-17T10:18:44.574Z,969.86
2022-10-17T10:19:43.946Z,969.88
2022-10-17T10:21:45.169Z,969.91
2022-10-17T10:22:43.839Z,969.9
2022-10-17T10:23:43.856Z,969.89
2022-10-17T10:24:43.727Z,969.85
2022-10-17T10:25:43.789Z,969.86
2022-10-17T10:27:43.828Z,969.82
2022-10-17T10:28:43.817Z,969.79
2022-10-17T10:30:43.907Z,969.82
2022-10-17T10:31:43.843Z,969.85
2022-10-17T10:32:43.862Z,969.89
2022-10-17T10:33:46.921Z,969.9
2022-10-17T10:34:43.924Z,969.91
2022-10-17T10:35:43.866Z,969.9
2022-10-17T10:36:43.832Z,969.88
2022-10-17T10:37:43.750Z,969.94
2022-10-17T10:38:43.750Z,969.93
2022-10-17T10:39:43.840Z,969.9
2022-10-17T10:41:43.997Z,969.89
2022-10-17T10:42:43.771Z,969.88
2022-10-17T10:43:43.755Z,969.8
2022-10-17T10:44:43.873Z,969.82
2022-10-17T10:45:48.277Z,969.79
2022-10-17T10:46:43.764Z,969.78
2022-10-17T10:47:43.882Z,969.76
2022-10-17T10:48:43.855Z,969.73
2022-10-17T10:49:43.847Z,969.75
2022-10-17T10:51:43.772Z,969.74
2022-10-17T10:52:43.854Z,969.77
2022-10-17T10:53:44.020Z,969.76
2022-10-17T10:54:43.792Z,969.7
2022-10-17T10:55:43.785Z,969.69
2022-10-17T10:56:43.917Z,969.68
2022-10-17T10:57:43.858Z,969.66
2022-10-17T10:58:43.934Z,969.64
2022-10-17T10:59:43.804Z,969.68
2022-10-17T11:00:43.885Z,969.64
2022-10-17T11:01:43.933Z,969.67
2022-10-17T11:03:43.947Z,969.65
2022-10-17T11:05:43.990Z,969.63
2022-10-17T11:07:44.015Z,969.64
2022-10-17T11:08:43.928Z,969.66
2022-10-17T11:09:43.871Z,969.58
2022-10-17T11:10:43.849Z,969.57
2022-10-17T11:13:43.862Z,969.57
2022-10-17T11:14:43.840Z,969.59
2022-10-17T11:16:43.903Z,969.57
2022-10-17T11:17:43.941Z,969.56
2022-10-17T11:18:43.844Z,969.55
2022-10-17T11:19:43.963Z,969.56
2022-10-17T11:20:45.283Z,969.52
2022-10-17T11:23:43.951Z,969.49
2022-10-17T11:24:43.887Z,969.5
2022-10-17T11:25:43.972Z,969.48
2022-10-17T11:26:43.933Z,969.47
2022-10-17T11:27:43.903Z,969.48
2022-10-17T11:28:43.900Z,969.43
2022-10-17T11:29:43.885Z,969.49
2022-10-17T11:31:44.062Z,969.43
2022-10-17T11:32:43.982Z,969.44
2022-10-17T11:33:43.910Z,969.43
2022-10-17T11:34:43.979Z,969.45
2022-10-17T11:36:43.994Z,969.43
2022-10-17T11:37:45.980Z,969.42
2022-10-17T11:38:43.890Z,969.44
2022-10-17T11:39:44.028Z,969.4
2022-10-17T11:40:43.988Z,969.41
2022-10-17T11:41:43.974Z,969.43
2022-10-17T11:42:44.013Z,969.46
2022-10-17T11:44:43.976Z,969.42
2022-10-17T11:45:44.039Z,969.39
2022-10-17T11:46:43.996Z,969.41
2022-10-17T11:47:44.069Z,969.44
2022-10-17T11:48:44.038Z,969.41
2022-10-17T11:49:45.205Z,969.4
2022-10-17T11:52:01.101Z,969.36
2022-10-17T11:52:55.778Z,969.34
2022-10-17T11:53:44.059Z,969.37
2022-10-17T11:54:43.950Z,969.35
2022-10-17T11:55:44.002Z,969.39
2022-10-17T11:56:44.213Z,969.38
2022-10-17T11:57:43.949Z,969.36
2022-10-17T11:58:43.947Z,969.34
2022-10-17T11:59:43.949Z,969.36
2022-10-17T12:00:45.132Z,969.35
2022-10-17T12:01:43.949Z,969.38
2022-10-17T12:02:44.086Z,969.39
2022-10-17T12:03:43.996Z,969.37
2022-10-17T12:04:48.487Z,969.35
2022-10-17T12:05:43.981Z,969.37
2022-10-17T12:06:44.058Z,969.34
2022-10-17T12:07:44.127Z,969.32
2022-10-17T12:09:43.970Z,969.33
2022-10-17T12:10:44.130Z,969.32
2022-10-17T12:11:44.102Z,969.34
2022-10-17T12:12:43.999Z,969.35
2022-10-17T12:13:44.146Z,969.32
2022-10-17T12:14:44.095Z,969.35
2022-10-17T12:15:46.607Z,969.34
2022-10-17T12:17:44.189Z,969.33
2022-10-17T12:18:44.008Z,969.34
2022-10-17T12:19:44.042Z,969.33
2022-10-17T12:20:44.112Z,969.3
2022-10-17T12:21:44.020Z,969.29
2022-10-17T12:22:44.073Z,969.28
2022-10-17T12:23:44.156Z,969.22
2022-10-17T12:24:44.088Z,969.25
2022-10-17T12:25:44.167Z,969.17
2022-10-17T12:26:44.125Z,969.19
2022-10-17T12:27:44.084Z,969.14
2022-10-17T12:28:44.198Z,969.16
2022-10-17T12:30:44.164Z,969.18
2022-10-17T12:31:44.169Z,969.15
2022-10-17T12:33:00.209Z,969.19
2022-10-17T12:33:44.098Z,969.11
2022-10-17T12:35:44.032Z,969.08
2022-10-17T12:36:44.214Z,969.15
2022-10-17T12:37:44.180Z,969.14
2022-10-17T12:38:46.698Z,969.11
2022-10-17T12:40:48.570Z,969.12
2022-10-17T12:41:44.172Z,969.1
2022-10-17T12:42:44.111Z,969.12
2022-10-17T12:43:44.729Z,969.15
2022-10-17T12:44:45.725Z,969.13
2022-10-17T12:45:44.226Z,969.14
2022-10-17T12:46:44.183Z,969.13
2022-10-17T12:47:44.081Z,969.14
2022-10-17T12:48:44.230Z,969.15
2022-10-17T12:49:44.188Z,969.16
2022-10-17T12:50:44.162Z,969.15
2022-10-17T12:51:44.135Z,969.14
2022-10-17T12:52:44.174Z,969.12
2022-10-17T12:53:44.158Z,969.08
2022-10-17T12:55:44.282Z,969.11
2022-10-17T12:56:44.190Z,969.1
2022-10-17T12:57:44.155Z,969.05
2022-10-17T12:58:44.200Z,969.04
2022-10-17T13:00:54.800Z,969.01
2022-10-17T13:01:44.340Z,969.04
2022-10-17T13:02:44.175Z,969.05
2022-10-17T13:03:44.186Z,969.02
2022-10-17T13:04:44.213Z,969.04
2022-10-17T13:05:44.170Z,969
2022-10-17T13:06:44.141Z,968.92
2022-10-17T13:07:44.218Z,968.96
2022-10-17T13:08:44.287Z,968.94
2022-10-17T13:09:44.125Z,968.92
2022-10-17T13:10:44.235Z,968.94
2022-10-17T13:11:44.240Z,968.99
2022-10-17T13:13:44.268Z,969.04
2022-10-17T13:14:44.141Z,969.01
2022-10-17T13:17:44.445Z,968.99
2022-10-17T13:19:44.338Z,969.03
2022-10-17T13:20:44.340Z,969
2022-10-17T13:21:44.282Z,968.95
2022-10-17T13:22:44.236Z,968.92
2022-10-17T13:23:44.305Z,968.94
2022-10-17T13:24:44.262Z,968.95
2022-10-17T13:25:44.244Z,968.96
2022-10-17T13:26:44.343Z,968.97
2022-10-17T13:27:44.262Z,968.94
2022-10-17T13:30:44.205Z,968.97
2022-10-17T13:31:44.350Z,968.95
2022-10-17T13:32:44.312Z,968.94
2022-10-17T13:33:44.295Z,968.98
2022-10-17T13:34:44.365Z,968.92
2022-10-17T13:36:00.661Z,968.89
2022-10-17T13:36:47.973Z,968.91
2022-10-17T13:37:44.448Z,968.88
2022-10-17T13:38:44.326Z,968.86
2022-10-17T13:39:55.043Z,968.88
2022-10-17T13:40:49.441Z,968.92
2022-10-17T13:41:44.488Z,968.9
2022-10-17T13:42:44.292Z,968.83
2022-10-17T13:43:44.286Z,968.86
2022-10-17T13:44:44.315Z,968.89
2022-10-17T13:45:44.313Z,968.78
2022-10-17T13:47:44.434Z,968.82
2022-10-17T13:48:44.327Z,968.85
2022-10-17T13:50:44.917Z,968.87
2022-10-17T13:51:44.260Z,968.83
2022-10-17T13:52:44.393Z,968.85
2022-10-17T13:54:44.329Z,968.73
2022-10-17T13:55:44.384Z,968.68
2022-10-17T13:56:44.506Z,968.7
2022-10-17T13:57:44.318Z,968.73
2022-10-17T13:58:44.284Z,968.75
2022-10-17T13:59:44.351Z,968.74
2022-10-17T14:00:44.268Z,968.75
2022-10-17T14:01:44.385Z,968.72
2022-10-17T14:02:44.365Z,968.73
2022-10-17T14:05:12.006Z,968.75
2022-10-17T14:05:44.458Z,968.7
2022-10-17T14:07:58.668Z,968.72
2022-10-17T14:08:44.299Z,968.68
2022-10-17T14:09:44.351Z,968.71
2022-10-17T14:10:44.297Z,968.69
2022-10-17T14:12:47.185Z,968.67
2022-10-17T14:13:44.425Z,968.68
2022-10-17T14:15:05.526Z,968.67
2022-10-17T14:15:44.429Z,968.66
2022-10-17T14:16:44.403Z,968.68
2022-10-17T14:17:44.379Z,968.69
2022-10-17T14:18:44.339Z,968.72
2022-10-17T14:19:48.439Z,968.68
2022-10-17T14:21:44.885Z,968.7
2022-10-17T14:22:47.251Z,968.68
2022-10-17T14:23:44.493Z,968.72
2022-10-17T14:24:44.358Z,968.74
2022-10-17T14:25:44.429Z,968.75
2022-10-17T14:26:44.386Z,968.72
2022-10-17T14:27:44.375Z,968.73
2022-10-17T14:28:44.474Z,968.72
2022-10-17T14:31:44.456Z,968.74
2022-10-17T14:32:44.426Z,968.78
2022-10-17T14:33:45.839Z,968.81
2022-10-17T14:34:44.545Z,968.77
2022-10-17T14:35:44.675Z,968.74
2022-10-17T14:36:44.352Z,968.71
2022-10-17T14:37:44.442Z,968.65
2022-10-17T14:38:44.442Z,968.66